Pagina principale
METAR-TAF:

METAR-TAF

Aeroporti :

Aeroporto di Rodez-Aveyron

Rodez, Francia

latitudine: 44-24N, longitudine: 002-29E, altezza: 581 m

Osservazione

Il bollettino è stato emesso 25 minuti fa, alle 03:30 UTC
Vento 5 kt da nord/nord-ovest
Temperature 2°C
Umidità 75%
Pressione 1014 hPa
Visibilità 10 km o più
Cielo coperto ad un'altezza di 3400 ft
pioggia debole

METAR: LFCR 300330Z AUTO 33005KT 9999 -RA OVC034 02/M02 Q1014

Ora: 05:55 (03:55 UTC)


TAF: mancante

Osservazioni e previsioni meteorologiche di più di 4000 aeroporti (messaggi METAR e TAF).

Le stazioni disponibili sono rappresentate dai dischi gialli e rossi sulla carta.

Puntare il mouse per vedere il nome della stazione.

Clicca sopra per visualizzare le osservazioni e previsioni meteorologiche.

Per cambiare la mappa : fare clic sui pulsanti verdi con una croce nera per ingrandire, il pulsante verde con un trattino per diminuire, o sulla freccia verde per le mappe adiacenti.


METAR-TAF: